sensor_id;sensor_type;location;lat;lon;timestamp;P1;durP1;ratioP1;P2;durP2;ratioP2
68050;SDS011;54839;51.364;7.246;2024-01-30T00:01:36;11.73;;;9.40;;
68050;SDS011;54839;51.364;7.246;2024-01-30T00:04:02;12.50;;;9.33;;
68050;SDS011;54839;51.364;7.246;2024-01-30T00:06:27;10.20;;;9.10;;
68050;SDS011;54839;51.364;7.246;2024-01-30T00:08:53;11.63;;;8.83;;
68050;SDS011;54839;51.364;7.246;2024-01-30T00:11:19;13.83;;;10.03;;
68050;SDS011;54839;51.364;7.246;2024-01-30T00:13:45;10.80;;;8.77;;
68050;SDS011;54839;51.364;7.246;2024-01-30T00:16:23;10.20;;;9.03;;
68050;SDS011;54839;51.364;7.246;2024-01-30T00:18:52;11.60;;;9.40;;
68050;SDS011;54839;51.364;7.246;2024-01-30T00:21:18;13.17;;;10.20;;
68050;SDS011;54839;51.364;7.246;2024-01-30T00:23:44;12.97;;;10.13;;
68050;SDS011;54839;51.364;7.246;2024-01-30T00:26:10;15.90;;;10.63;;
68050;SDS011;54839;51.364;7.246;2024-01-30T00:28:37;11.30;;;8.93;;
68050;SDS011;54839;51.364;7.246;2024-01-30T00:31:03;11.43;;;9.80;;
68050;SDS011;54839;51.364;7.246;2024-01-30T00:33:29;13.50;;;9.67;;
68050;SDS011;54839;51.364;7.246;2024-01-30T00:35:55;16.83;;;10.00;;
68050;SDS011;54839;51.364;7.246;2024-01-30T00:38:20;13.07;;;10.67;;
68050;SDS011;54839;51.364;7.246;2024-01-30T00:40:46;13.57;;;10.67;;
68050;SDS011;54839;51.364;7.246;2024-01-30T00:43:12;13.43;;;10.40;;
68050;SDS011;54839;51.364;7.246;2024-01-30T00:45:37;10.97;;;9.83;;
68050;SDS011;54839;51.364;7.246;2024-01-30T00:48:03;13.00;;;9.97;;
68050;SDS011;54839;51.364;7.246;2024-01-30T00:50:29;10.83;;;9.40;;
68050;SDS011;54839;51.364;7.246;2024-01-30T00:52:55;11.87;;;10.00;;
68050;SDS011;54839;51.364;7.246;2024-01-30T00:55:20;13.07;;;10.17;;
68050;SDS011;54839;51.364;7.246;2024-01-30T00:57:46;10.80;;;9.27;;
68050;SDS011;54839;51.364;7.246;2024-01-30T01:00:12;11.70;;;10.10;;
68050;SDS011;54839;51.364;7.246;2024-01-30T01:02:42;15.83;;;10.03;;
68050;SDS011;54839;51.364;7.246;2024-01-30T01:05:08;14.80;;;11.20;;
68050;SDS011;54839;51.364;7.246;2024-01-30T01:07:34;13.67;;;10.30;;
68050;SDS011;54839;51.364;7.246;2024-01-30T01:09:59;15.23;;;10.53;;
68050;SDS011;54839;51.364;7.246;2024-01-30T01:12:25;14.77;;;10.27;;
68050;SDS011;54839;51.364;7.246;2024-01-30T01:14:51;12.13;;;10.10;;
68050;SDS011;54839;51.364;7.246;2024-01-30T01:17:17;13.87;;;9.93;;
68050;SDS011;54839;51.364;7.246;2024-01-30T01:19:43;17.83;;;11.00;;
68050;SDS011;54839;51.364;7.246;2024-01-30T01:22:09;12.60;;;10.30;;
68050;SDS011;54839;51.364;7.246;2024-01-30T01:24:35;15.87;;;11.17;;
68050;SDS011;54839;51.364;7.246;2024-01-30T01:27:01;13.30;;;10.33;;
68050;SDS011;54839;51.364;7.246;2024-01-30T01:29:27;12.40;;;10.03;;
68050;SDS011;54839;51.364;7.246;2024-01-30T01:31:56;12.47;;;10.80;;
68050;SDS011;54839;51.364;7.246;2024-01-30T01:34:23;12.93;;;11.17;;
68050;SDS011;54839;51.364;7.246;2024-01-30T01:36:49;10.80;;;9.30;;
68050;SDS011;54839;51.364;7.246;2024-01-30T01:39:15;10.70;;;9.30;;
68050;SDS011;54839;51.364;7.246;2024-01-30T01:41:41;13.37;;;11.10;;
68050;SDS011;54839;51.364;7.246;2024-01-30T01:44:07;10.77;;;9.30;;
68050;SDS011;54839;51.364;7.246;2024-01-30T01:46:34;13.63;;;10.77;;
68050;SDS011;54839;51.364;7.246;2024-01-30T01:49:00;14.50;;;11.23;;
68050;SDS011;54839;51.364;7.246;2024-01-30T01:51:30;11.50;;;10.23;;
68050;SDS011;54839;51.364;7.246;2024-01-30T01:53:58;15.33;;;12.17;;
68050;SDS011;54839;51.364;7.246;2024-01-30T01:56:27;11.70;;;10.50;;
68050;SDS011;54839;51.364;7.246;2024-01-30T01:58:54;13.63;;;9.17;;
68050;SDS011;54839;51.364;7.246;2024-01-30T02:01:20;13.80;;;11.13;;
68050;SDS011;54839;51.364;7.246;2024-01-30T02:03:48;12.40;;;10.17;;
68050;SDS011;54839;51.364;7.246;2024-01-30T02:06:14;11.10;;;9.27;;
68050;SDS011;54839;51.364;7.246;2024-01-30T02:08:41;13.50;;;11.43;;
68050;SDS011;54839;51.364;7.246;2024-01-30T02:11:07;16.80;;;10.90;;
68050;SDS011;54839;51.364;7.246;2024-01-30T02:13:33;10.83;;;9.03;;
68050;SDS011;54839;51.364;7.246;2024-01-30T02:15:59;14.33;;;10.50;;
68050;SDS011;54839;51.364;7.246;2024-01-30T02:18:26;14.43;;;11.20;;
68050;SDS011;54839;51.364;7.246;2024-01-30T02:20:52;11.13;;;9.93;;
68050;SDS011;54839;51.364;7.246;2024-01-30T02:23:19;13.30;;;10.10;;
68050;SDS011;54839;51.364;7.246;2024-01-30T02:25:45;12.70;;;10.03;;
68050;SDS011;54839;51.364;7.246;2024-01-30T02:28:14;10.50;;;9.37;;
68050;SDS011;54839;51.364;7.246;2024-01-30T02:30:42;12.83;;;10.33;;
68050;SDS011;54839;51.364;7.246;2024-01-30T02:33:08;14.57;;;10.30;;
68050;SDS011;54839;51.364;7.246;2024-01-30T02:35:34;14.43;;;10.10;;
68050;SDS011;54839;51.364;7.246;2024-01-30T02:38:00;12.13;;;10.10;;
68050;SDS011;54839;51.364;7.246;2024-01-30T02:40:26;12.87;;;10.00;;
68050;SDS011;54839;51.364;7.246;2024-01-30T02:42:52;14.67;;;10.70;;
68050;SDS011;54839;51.364;7.246;2024-01-30T02:45:17;13.37;;;9.77;;
68050;SDS011;54839;51.364;7.246;2024-01-30T02:47:43;11.80;;;9.70;;
68050;SDS011;54839;51.364;7.246;2024-01-30T02:50:09;11.27;;;10.17;;
68050;SDS011;54839;51.364;7.246;2024-01-30T02:52:35;14.50;;;11.10;;
68050;SDS011;54839;51.364;7.246;2024-01-30T02:55:01;12.60;;;9.50;;
68050;SDS011;54839;51.364;7.246;2024-01-30T02:57:27;15.03;;;10.83;;
68050;SDS011;54839;51.364;7.246;2024-01-30T02:59:53;11.40;;;9.47;;
68050;SDS011;54839;51.364;7.246;2024-01-30T03:02:19;11.90;;;8.80;;
68050;SDS011;54839;51.364;7.246;2024-01-30T03:04:45;15.97;;;8.70;;
68050;SDS011;54839;51.364;7.246;2024-01-30T03:07:11;15.43;;;9.43;;
68050;SDS011;54839;51.364;7.246;2024-01-30T03:09:37;10.57;;;8.90;;
68050;SDS011;54839;51.364;7.246;2024-01-30T03:12:03;10.83;;;9.60;;
68050;SDS011;54839;51.364;7.246;2024-01-30T03:14:32;9.57;;;8.57;;
68050;SDS011;54839;51.364;7.246;2024-01-30T03:16:58;10.93;;;9.53;;
68050;SDS011;54839;51.364;7.246;2024-01-30T03:19:24;12.73;;;9.60;;
68050;SDS011;54839;51.364;7.246;2024-01-30T03:21:50;10.17;;;9.07;;
68050;SDS011;54839;51.364;7.246;2024-01-30T03:24:16;11.63;;;9.50;;
68050;SDS011;54839;51.364;7.246;2024-01-30T03:26:42;10.43;;;8.33;;
68050;SDS011;54839;51.364;7.246;2024-01-30T03:29:08;12.13;;;10.47;;
68050;SDS011;54839;51.364;7.246;2024-01-30T03:31:34;10.67;;;9.13;;
68050;SDS011;54839;51.364;7.246;2024-01-30T03:34:00;12.40;;;9.10;;
68050;SDS011;54839;51.364;7.246;2024-01-30T03:36:26;11.23;;;9.70;;
68050;SDS011;54839;51.364;7.246;2024-01-30T03:38:52;24.63;;;11.40;;
68050;SDS011;54839;51.364;7.246;2024-01-30T03:41:17;13.83;;;8.77;;
68050;SDS011;54839;51.364;7.246;2024-01-30T03:43:43;11.53;;;8.67;;
68050;SDS011;54839;51.364;7.246;2024-01-30T03:46:09;9.57;;;8.60;;
68050;SDS011;54839;51.364;7.246;2024-01-30T03:48:37;9.80;;;7.90;;
68050;SDS011;54839;51.364;7.246;2024-01-30T03:51:03;14.13;;;9.43;;
68050;SDS011;54839;51.364;7.246;2024-01-30T03:53:29;10.90;;;8.33;;
68050;SDS011;54839;51.364;7.246;2024-01-30T03:55:55;14.20;;;8.80;;
68050;SDS011;54839;51.364;7.246;2024-01-30T03:58:21;11.93;;;8.77;;
68050;SDS011;54839;51.364;7.246;2024-01-30T04:00:46;9.63;;;8.47;;
68050;SDS011;54839;51.364;7.246;2024-01-30T04:03:12;11.10;;;8.90;;
68050;SDS011;54839;51.364;7.246;2024-01-30T04:05:40;13.03;;;9.07;;
68050;SDS011;54839;51.364;7.246;2024-01-30T04:08:06;11.70;;;8.50;;
68050;SDS011;54839;51.364;7.246;2024-01-30T04:10:32;10.13;;;8.50;;
68050;SDS011;54839;51.364;7.246;2024-01-30T04:12:58;12.63;;;7.77;;
68050;SDS011;54839;51.364;7.246;2024-01-30T04:15:24;9.90;;;8.20;;
68050;SDS011;54839;51.364;7.246;2024-01-30T04:17:50;9.43;;;8.53;;
68050;SDS011;54839;51.364;7.246;2024-01-30T04:20:16;10.70;;;8.67;;
68050;SDS011;54839;51.364;7.246;2024-01-30T04:22:45;12.23;;;8.60;;
68050;SDS011;54839;51.364;7.246;2024-01-30T04:25:11;9.60;;;8.60;;
68050;SDS011;54839;51.364;7.246;2024-01-30T04:27:38;11.47;;;7.70;;
68050;SDS011;54839;51.364;7.246;2024-01-30T04:30:04;9.00;;;8.03;;
68050;SDS011;54839;51.364;7.246;2024-01-30T04:32:30;9.70;;;8.47;;
68050;SDS011;54839;51.364;7.246;2024-01-30T04:34:57;9.80;;;8.33;;
68050;SDS011;54839;51.364;7.246;2024-01-30T04:37:22;8.80;;;7.70;;
68050;SDS011;54839;51.364;7.246;2024-01-30T04:39:48;10.50;;;8.63;;
68050;SDS011;54839;51.364;7.246;2024-01-30T04:42:14;12.90;;;8.67;;
68050;SDS011;54839;51.364;7.246;2024-01-30T04:44:40;11.13;;;8.60;;
68050;SDS011;54839;51.364;7.246;2024-01-30T04:47:05;12.33;;;9.00;;
68050;SDS011;54839;51.364;7.246;2024-01-30T04:49:33;11.23;;;9.10;;
68050;SDS011;54839;51.364;7.246;2024-01-30T04:51:59;9.97;;;8.97;;
68050;SDS011;54839;51.364;7.246;2024-01-30T04:54:25;13.17;;;8.60;;
68050;SDS011;54839;51.364;7.246;2024-01-30T04:56:51;11.43;;;9.23;;
68050;SDS011;54839;51.364;7.246;2024-01-30T04:59:17;9.90;;;8.90;;
68050;SDS011;54839;51.364;7.246;2024-01-30T05:01:43;10.87;;;7.87;;
68050;SDS011;54839;51.364;7.246;2024-01-30T05:04:08;10.97;;;9.17;;
68050;SDS011;54839;51.364;7.246;2024-01-30T05:06:35;11.90;;;7.73;;
68050;SDS011;54839;51.364;7.246;2024-01-30T05:09:00;13.17;;;10.20;;
68050;SDS011;54839;51.364;7.246;2024-01-30T05:11:26;13.63;;;8.93;;
68050;SDS011;54839;51.364;7.246;2024-01-30T05:13:51;9.77;;;8.77;;
68050;SDS011;54839;51.364;7.246;2024-01-30T05:16:17;10.27;;;9.13;;
68050;SDS011;54839;51.364;7.246;2024-01-30T05:18:43;10.03;;;8.47;;
68050;SDS011;54839;51.364;7.246;2024-01-30T05:21:09;10.40;;;8.30;;
68050;SDS011;54839;51.364;7.246;2024-01-30T05:23:35;11.33;;;8.97;;
68050;SDS011;54839;51.364;7.246;2024-01-30T05:26:01;12.10;;;8.50;;
68050;SDS011;54839;51.364;7.246;2024-01-30T05:28:28;9.20;;;8.20;;
68050;SDS011;54839;51.364;7.246;2024-01-30T05:30:55;10.60;;;8.60;;
68050;SDS011;54839;51.364;7.246;2024-01-30T05:33:21;9.80;;;8.57;;
68050;SDS011;54839;51.364;7.246;2024-01-30T05:35:47;16.73;;;9.27;;
68050;SDS011;54839;51.364;7.246;2024-01-30T05:38:13;11.97;;;7.90;;
68050;SDS011;54839;51.364;7.246;2024-01-30T05:40:40;11.87;;;8.30;;
68050;SDS011;54839;51.364;7.246;2024-01-30T05:43:06;9.67;;;8.60;;
68050;SDS011;54839;51.364;7.246;2024-01-30T05:45:33;13.13;;;8.70;;
68050;SDS011;54839;51.364;7.246;2024-01-30T05:48:03;9.93;;;8.83;;
68050;SDS011;54839;51.364;7.246;2024-01-30T05:50:30;11.63;;;8.70;;
68050;SDS011;54839;51.364;7.246;2024-01-30T05:52:55;8.90;;;7.30;;
68050;SDS011;54839;51.364;7.246;2024-01-30T05:55:21;9.47;;;7.77;;
68050;SDS011;54839;51.364;7.246;2024-01-30T05:57:48;10.03;;;8.73;;
68050;SDS011;54839;51.364;7.246;2024-01-30T06:00:14;9.87;;;7.50;;
68050;SDS011;54839;51.364;7.246;2024-01-30T06:02:40;9.43;;;7.07;;
68050;SDS011;54839;51.364;7.246;2024-01-30T06:05:06;10.37;;;8.00;;
68050;SDS011;54839;51.364;7.246;2024-01-30T06:07:32;9.90;;;7.77;;
68050;SDS011;54839;51.364;7.246;2024-01-30T06:09:58;11.27;;;8.00;;
68050;SDS011;54839;51.364;7.246;2024-01-30T06:12:25;11.23;;;8.93;;
68050;SDS011;54839;51.364;7.246;2024-01-30T06:14:52;9.10;;;7.43;;
68050;SDS011;54839;51.364;7.246;2024-01-30T06:17:19;11.13;;;7.83;;
68050;SDS011;54839;51.364;7.246;2024-01-30T06:19:44;11.23;;;10.03;;
68050;SDS011;54839;51.364;7.246;2024-01-30T06:22:10;9.07;;;6.93;;
68050;SDS011;54839;51.364;7.246;2024-01-30T06:24:36;9.37;;;8.23;;
68050;SDS011;54839;51.364;7.246;2024-01-30T06:27:02;8.40;;;7.60;;
68050;SDS011;54839;51.364;7.246;2024-01-30T06:29:27;9.80;;;7.97;;
68050;SDS011;54839;51.364;7.246;2024-01-30T06:31:54;8.83;;;7.40;;
68050;SDS011;54839;51.364;7.246;2024-01-30T06:34:19;10.27;;;7.83;;
68050;SDS011;54839;51.364;7.246;2024-01-30T06:36:45;9.30;;;7.07;;
68050;SDS011;54839;51.364;7.246;2024-01-30T06:39:10;9.30;;;8.20;;
68050;SDS011;54839;51.364;7.246;2024-01-30T06:41:36;10.73;;;7.70;;
68050;SDS011;54839;51.364;7.246;2024-01-30T06:44:02;12.77;;;8.37;;
68050;SDS011;54839;51.364;7.246;2024-01-30T06:46:29;9.83;;;8.20;;
68050;SDS011;54839;51.364;7.246;2024-01-30T06:48:55;9.27;;;7.60;;
68050;SDS011;54839;51.364;7.246;2024-01-30T06:51:20;9.10;;;6.87;;
68050;SDS011;54839;51.364;7.246;2024-01-30T06:53:46;10.73;;;8.20;;
68050;SDS011;54839;51.364;7.246;2024-01-30T06:56:12;11.93;;;9.60;;
68050;SDS011;54839;51.364;7.246;2024-01-30T06:58:38;8.67;;;7.33;;
68050;SDS011;54839;51.364;7.246;2024-01-30T07:01:04;9.90;;;8.23;;
68050;SDS011;54839;51.364;7.246;2024-01-30T07:03:29;13.70;;;8.07;;
68050;SDS011;54839;51.364;7.246;2024-01-30T07:05:55;14.13;;;8.00;;
68050;SDS011;54839;51.364;7.246;2024-01-30T07:08:21;9.00;;;7.97;;
68050;SDS011;54839;51.364;7.246;2024-01-30T07:10:47;14.90;;;11.73;;
68050;SDS011;54839;51.364;7.246;2024-01-30T07:13:13;10.87;;;7.43;;
68050;SDS011;54839;51.364;7.246;2024-01-30T07:15:41;9.63;;;7.50;;
68050;SDS011;54839;51.364;7.246;2024-01-30T07:18:07;8.00;;;6.80;;
68050;SDS011;54839;51.364;7.246;2024-01-30T07:20:32;12.47;;;8.27;;
68050;SDS011;54839;51.364;7.246;2024-01-30T07:22:58;9.93;;;7.70;;
68050;SDS011;54839;51.364;7.246;2024-01-30T07:25:24;16.03;;;7.97;;
68050;SDS011;54839;51.364;7.246;2024-01-30T07:27:52;9.20;;;8.00;;
68050;SDS011;54839;51.364;7.246;2024-01-30T07:30:18;10.90;;;7.90;;
68050;SDS011;54839;51.364;7.246;2024-01-30T07:32:44;9.60;;;7.90;;
68050;SDS011;54839;51.364;7.246;2024-01-30T07:35:13;12.37;;;8.20;;
68050;SDS011;54839;51.364;7.246;2024-01-30T07:37:39;14.23;;;9.77;;
68050;SDS011;54839;51.364;7.246;2024-01-30T07:40:05;11.17;;;7.60;;
68050;SDS011;54839;51.364;7.246;2024-01-30T07:42:31;8.40;;;7.57;;
68050;SDS011;54839;51.364;7.246;2024-01-30T07:44:58;8.73;;;7.80;;
68050;SDS011;54839;51.364;7.246;2024-01-30T07:47:25;12.40;;;8.70;;
68050;SDS011;54839;51.364;7.246;2024-01-30T07:49:50;12.50;;;8.83;;
68050;SDS011;54839;51.364;7.246;2024-01-30T07:52:16;14.43;;;8.77;;
68050;SDS011;54839;51.364;7.246;2024-01-30T07:54:42;9.77;;;7.90;;
68050;SDS011;54839;51.364;7.246;2024-01-30T07:57:08;12.87;;;8.37;;
68050;SDS011;54839;51.364;7.246;2024-01-30T07:59:33;16.33;;;8.73;;
68050;SDS011;54839;51.364;7.246;2024-01-30T08:01:59;10.00;;;8.07;;
68050;SDS011;54839;51.364;7.246;2024-01-30T08:04:25;9.70;;;8.20;;
68050;SDS011;54839;51.364;7.246;2024-01-30T08:06:50;13.37;;;9.60;;
68050;SDS011;54839;51.364;7.246;2024-01-30T08:09:16;12.07;;;7.73;;
68050;SDS011;54839;51.364;7.246;2024-01-30T08:11:42;9.33;;;8.37;;
68050;SDS011;54839;51.364;7.246;2024-01-30T08:14:07;9.93;;;7.93;;
68050;SDS011;54839;51.364;7.246;2024-01-30T08:16:33;15.77;;;10.73;;
68050;SDS011;54839;51.364;7.246;2024-01-30T08:18:59;12.20;;;8.80;;
68050;SDS011;54839;51.364;7.246;2024-01-30T08:21:25;10.73;;;7.80;;
68050;SDS011;54839;51.364;7.246;2024-01-30T08:23:51;7.93;;;6.90;;
68050;SDS011;54839;51.364;7.246;2024-01-30T08:26:17;11.93;;;7.13;;
68050;SDS011;54839;51.364;7.246;2024-01-30T08:28:43;8.93;;;8.07;;
68050;SDS011;54839;51.364;7.246;2024-01-30T08:31:10;9.73;;;7.43;;
68050;SDS011;54839;51.364;7.246;2024-01-30T08:33:37;9.27;;;8.00;;
68050;SDS011;54839;51.364;7.246;2024-01-30T08:36:03;11.30;;;8.47;;
68050;SDS011;54839;51.364;7.246;2024-01-30T08:38:28;9.83;;;7.67;;
68050;SDS011;54839;51.364;7.246;2024-01-30T08:40:55;8.47;;;7.67;;
68050;SDS011;54839;51.364;7.246;2024-01-30T08:43:21;8.93;;;7.20;;
68050;SDS011;54839;51.364;7.246;2024-01-30T08:45:46;7.23;;;6.33;;
68050;SDS011;54839;51.364;7.246;2024-01-30T08:48:12;10.90;;;7.80;;
68050;SDS011;54839;51.364;7.246;2024-01-30T08:50:37;8.90;;;7.50;;
68050;SDS011;54839;51.364;7.246;2024-01-30T08:53:03;6.97;;;6.23;;
68050;SDS011;54839;51.364;7.246;2024-01-30T08:55:29;8.57;;;7.33;;
68050;SDS011;54839;51.364;7.246;2024-01-30T08:57:55;11.30;;;6.67;;
68050;SDS011;54839;51.364;7.246;2024-01-30T09:00:20;10.40;;;7.50;;
68050;SDS011;54839;51.364;7.246;2024-01-30T09:02:46;8.50;;;7.10;;
68050;SDS011;54839;51.364;7.246;2024-01-30T09:05:12;11.20;;;6.87;;
68050;SDS011;54839;51.364;7.246;2024-01-30T09:07:37;11.67;;;6.80;;
68050;SDS011;54839;51.364;7.246;2024-01-30T09:10:03;10.17;;;6.70;;
68050;SDS011;54839;51.364;7.246;2024-01-30T09:12:29;11.23;;;7.83;;
68050;SDS011;54839;51.364;7.246;2024-01-30T09:14:55;8.20;;;6.97;;
68050;SDS011;54839;51.364;7.246;2024-01-30T09:17:21;7.70;;;6.10;;
68050;SDS011;54839;51.364;7.246;2024-01-30T09:19:47;7.80;;;7.00;;
68050;SDS011;54839;51.364;7.246;2024-01-30T09:22:12;7.87;;;6.90;;
68050;SDS011;54839;51.364;7.246;2024-01-30T09:24:38;8.70;;;6.80;;
68050;SDS011;54839;51.364;7.246;2024-01-30T09:27:03;8.33;;;6.70;;
68050;SDS011;54839;51.364;7.246;2024-01-30T09:29:29;11.33;;;7.07;;
68050;SDS011;54839;51.364;7.246;2024-01-30T09:31:55;11.07;;;6.77;;
68050;SDS011;54839;51.364;7.246;2024-01-30T09:34:20;11.53;;;7.33;;
68050;SDS011;54839;51.364;7.246;2024-01-30T09:36:46;13.30;;;7.57;;
68050;SDS011;54839;51.364;7.246;2024-01-30T09:39:11;10.63;;;7.40;;
68050;SDS011;54839;51.364;7.246;2024-01-30T09:41:48;9.00;;;6.83;;
68050;SDS011;54839;51.364;7.246;2024-01-30T09:44:16;10.13;;;6.90;;
68050;SDS011;54839;51.364;7.246;2024-01-30T09:46:44;10.27;;;5.50;;
68050;SDS011;54839;51.364;7.246;2024-01-30T09:49:13;9.07;;;6.73;;
68050;SDS011;54839;51.364;7.246;2024-01-30T09:51:39;12.30;;;6.73;;
68050;SDS011;54839;51.364;7.246;2024-01-30T09:54:06;11.90;;;7.33;;
68050;SDS011;54839;51.364;7.246;2024-01-30T09:56:33;10.40;;;8.20;;
68050;SDS011;54839;51.364;7.246;2024-01-30T09:58:59;9.43;;;7.13;;
68050;SDS011;54839;51.364;7.246;2024-01-30T10:01:24;10.90;;;7.57;;
68050;SDS011;54839;51.364;7.246;2024-01-30T10:03:50;9.37;;;6.70;;
68050;SDS011;54839;51.364;7.246;2024-01-30T10:06:19;7.37;;;6.60;;
68050;SDS011;54839;51.364;7.246;2024-01-30T10:08:45;9.23;;;7.80;;
68050;SDS011;54839;51.364;7.246;2024-01-30T10:11:11;14.13;;;7.63;;
68050;SDS011;54839;51.364;7.246;2024-01-30T10:13:38;10.33;;;6.70;;
68050;SDS011;54839;51.364;7.246;2024-01-30T10:16:04;14.37;;;7.70;;
68050;SDS011;54839;51.364;7.246;2024-01-30T10:18:31;8.10;;;6.97;;
68050;SDS011;54839;51.364;7.246;2024-01-30T10:20:58;10.60;;;6.93;;
68050;SDS011;54839;51.364;7.246;2024-01-30T10:23:24;9.90;;;6.57;;
68050;SDS011;54839;51.364;7.246;2024-01-30T10:25:50;7.73;;;7.03;;
68050;SDS011;54839;51.364;7.246;2024-01-30T10:28:17;8.50;;;6.17;;
68050;SDS011;54839;51.364;7.246;2024-01-30T10:30:43;9.20;;;7.50;;
68050;SDS011;54839;51.364;7.246;2024-01-30T10:33:09;9.60;;;5.80;;
68050;SDS011;54839;51.364;7.246;2024-01-30T10:35:34;8.77;;;6.80;;
68050;SDS011;54839;51.364;7.246;2024-01-30T10:38:00;11.40;;;5.97;;
68050;SDS011;54839;51.364;7.246;2024-01-30T10:40:29;9.43;;;7.97;;
68050;SDS011;54839;51.364;7.246;2024-01-30T10:42:55;7.70;;;5.70;;
68050;SDS011;54839;51.364;7.246;2024-01-30T10:45:21;11.63;;;7.93;;
68050;SDS011;54839;51.364;7.246;2024-01-30T10:47:52;14.97;;;7.30;;
68050;SDS011;54839;51.364;7.246;2024-01-30T10:50:21;12.37;;;6.97;;
68050;SDS011;54839;51.364;7.246;2024-01-30T10:52:49;12.37;;;8.00;;
68050;SDS011;54839;51.364;7.246;2024-01-30T10:55:16;9.33;;;6.20;;
68050;SDS011;54839;51.364;7.246;2024-01-30T10:57:43;7.07;;;5.77;;
68050;SDS011;54839;51.364;7.246;2024-01-30T11:00:10;5.17;;;4.67;;
68050;SDS011;54839;51.364;7.246;2024-01-30T11:02:44;11.23;;;5.50;;
68050;SDS011;54839;51.364;7.246;2024-01-30T11:05:10;8.30;;;5.40;;
68050;SDS011;54839;51.364;7.246;2024-01-30T11:07:38;15.50;;;5.50;;
68050;SDS011;54839;51.364;7.246;2024-01-30T11:10:06;7.17;;;4.97;;
68050;SDS011;54839;51.364;7.246;2024-01-30T11:12:37;11.90;;;7.43;;
68050;SDS011;54839;51.364;7.246;2024-01-30T11:15:18;8.10;;;4.47;;
68050;SDS011;54839;51.364;7.246;2024-01-30T11:20:19;15.43;;;6.10;;
68050;SDS011;54839;51.364;7.246;2024-01-30T11:22:57;7.40;;;4.17;;
68050;SDS011;54839;51.364;7.246;2024-01-30T11:25:24;8.60;;;5.97;;
68050;SDS011;54839;51.364;7.246;2024-01-30T11:27:53;7.80;;;5.23;;
68050;SDS011;54839;51.364;7.246;2024-01-30T11:30:20;11.30;;;5.57;;
68050;SDS011;54839;51.364;7.246;2024-01-30T11:32:57;6.13;;;5.33;;
68050;SDS011;54839;51.364;7.246;2024-01-30T11:35:37;6.23;;;4.80;;
68050;SDS011;54839;51.364;7.246;2024-01-30T11:38:04;9.73;;;5.17;;
68050;SDS011;54839;51.364;7.246;2024-01-30T11:40:31;13.57;;;6.53;;
68050;SDS011;54839;51.364;7.246;2024-01-30T11:42:59;7.07;;;5.20;;
68050;SDS011;54839;51.364;7.246;2024-01-30T11:45:26;13.63;;;5.90;;
68050;SDS011;54839;51.364;7.246;2024-01-30T11:47:52;6.20;;;5.60;;
68050;SDS011;54839;51.364;7.246;2024-01-30T11:50:18;8.80;;;5.67;;
68050;SDS011;54839;51.364;7.246;2024-01-30T11:52:44;7.20;;;4.87;;
68050;SDS011;54839;51.364;7.246;2024-01-30T11:55:10;8.20;;;5.57;;
68050;SDS011;54839;51.364;7.246;2024-01-30T11:57:37;9.00;;;5.53;;
68050;SDS011;54839;51.364;7.246;2024-01-30T12:00:04;6.77;;;5.13;;
68050;SDS011;54839;51.364;7.246;2024-01-30T12:02:35;8.37;;;5.77;;
68050;SDS011;54839;51.364;7.246;2024-01-30T12:05:07;11.20;;;6.27;;
68050;SDS011;54839;51.364;7.246;2024-01-30T12:07:34;7.60;;;6.03;;
68050;SDS011;54839;51.364;7.246;2024-01-30T12:09:59;9.27;;;5.23;;
68050;SDS011;54839;51.364;7.246;2024-01-30T12:12:26;9.93;;;5.33;;
68050;SDS011;54839;51.364;7.246;2024-01-30T12:14:52;7.53;;;5.63;;
68050;SDS011;54839;51.364;7.246;2024-01-30T12:20:10;12.50;;;5.77;;
68050;SDS011;54839;51.364;7.246;2024-01-30T12:22:38;5.97;;;5.00;;
68050;SDS011;54839;51.364;7.246;2024-01-30T12:25:07;11.03;;;6.50;;
68050;SDS011;54839;51.364;7.246;2024-01-30T12:27:34;9.47;;;5.50;;
68050;SDS011;54839;51.364;7.246;2024-01-30T12:30:00;8.30;;;4.70;;
68050;SDS011;54839;51.364;7.246;2024-01-30T12:32:26;11.23;;;6.63;;
68050;SDS011;54839;51.364;7.246;2024-01-30T12:34:56;8.70;;;4.50;;
68050;SDS011;54839;51.364;7.246;2024-01-30T12:37:22;7.43;;;3.80;;
68050;SDS011;54839;51.364;7.246;2024-01-30T12:39:49;11.50;;;6.37;;
68050;SDS011;54839;51.364;7.246;2024-01-30T12:42:17;14.60;;;7.67;;
68050;SDS011;54839;51.364;7.246;2024-01-30T12:44:43;10.13;;;6.30;;
68050;SDS011;54839;51.364;7.246;2024-01-30T12:47:10;10.73;;;6.30;;
68050;SDS011;54839;51.364;7.246;2024-01-30T12:49:35;11.27;;;6.83;;
68050;SDS011;54839;51.364;7.246;2024-01-30T12:52:01;9.97;;;6.80;;
68050;SDS011;54839;51.364;7.246;2024-01-30T12:54:27;15.47;;;6.80;;
68050;SDS011;54839;51.364;7.246;2024-01-30T12:56:53;11.87;;;7.13;;
68050;SDS011;54839;51.364;7.246;2024-01-30T12:59:19;8.90;;;6.40;;
68050;SDS011;54839;51.364;7.246;2024-01-30T13:01:44;14.03;;;7.53;;
68050;SDS011;54839;51.364;7.246;2024-01-30T13:04:10;12.33;;;6.60;;
68050;SDS011;54839;51.364;7.246;2024-01-30T13:06:36;10.70;;;6.83;;
68050;SDS011;54839;51.364;7.246;2024-01-30T13:09:02;20.17;;;7.23;;
68050;SDS011;54839;51.364;7.246;2024-01-30T13:11:28;12.43;;;5.50;;
68050;SDS011;54839;51.364;7.246;2024-01-30T13:13:54;14.97;;;6.33;;
68050;SDS011;54839;51.364;7.246;2024-01-30T13:16:19;10.40;;;7.60;;
68050;SDS011;54839;51.364;7.246;2024-01-30T13:18:45;14.67;;;7.07;;
68050;SDS011;54839;51.364;7.246;2024-01-30T13:21:10;12.50;;;7.30;;
68050;SDS011;54839;51.364;7.246;2024-01-30T13:23:36;10.60;;;7.33;;
68050;SDS011;54839;51.364;7.246;2024-01-30T13:26:02;10.10;;;6.27;;
68050;SDS011;54839;51.364;7.246;2024-01-30T13:28:27;11.10;;;6.87;;
68050;SDS011;54839;51.364;7.246;2024-01-30T13:30:53;13.87;;;9.00;;
68050;SDS011;54839;51.364;7.246;2024-01-30T13:33:19;10.50;;;6.53;;
68050;SDS011;54839;51.364;7.246;2024-01-30T13:35:44;13.47;;;8.20;;
68050;SDS011;54839;51.364;7.246;2024-01-30T13:38:10;12.47;;;7.30;;
68050;SDS011;54839;51.364;7.246;2024-01-30T13:40:36;15.73;;;8.53;;
68050;SDS011;54839;51.364;7.246;2024-01-30T13:43:01;10.83;;;5.43;;
68050;SDS011;54839;51.364;7.246;2024-01-30T13:45:27;10.67;;;8.80;;
68050;SDS011;54839;51.364;7.246;2024-01-30T13:47:52;10.27;;;7.57;;
68050;SDS011;54839;51.364;7.246;2024-01-30T13:50:18;11.80;;;7.30;;
68050;SDS011;54839;51.364;7.246;2024-01-30T13:52:44;10.80;;;6.30;;
68050;SDS011;54839;51.364;7.246;2024-01-30T13:55:09;10.30;;;7.57;;
68050;SDS011;54839;51.364;7.246;2024-01-30T13:57:38;9.23;;;7.30;;
68050;SDS011;54839;51.364;7.246;2024-01-30T14:00:04;14.07;;;8.73;;
68050;SDS011;54839;51.364;7.246;2024-01-30T14:02:31;11.83;;;7.60;;
68050;SDS011;54839;51.364;7.246;2024-01-30T14:04:57;9.43;;;7.30;;
68050;SDS011;54839;51.364;7.246;2024-01-30T14:07:23;11.13;;;6.73;;
68050;SDS011;54839;51.364;7.246;2024-01-30T14:09:48;14.70;;;8.27;;
68050;SDS011;54839;51.364;7.246;2024-01-30T14:12:15;9.20;;;7.47;;
68050;SDS011;54839;51.364;7.246;2024-01-30T14:14:40;10.03;;;5.43;;
68050;SDS011;54839;51.364;7.246;2024-01-30T14:17:06;11.80;;;7.27;;
68050;SDS011;54839;51.364;7.246;2024-01-30T14:19:33;11.50;;;7.90;;
68050;SDS011;54839;51.364;7.246;2024-01-30T14:21:59;8.60;;;7.70;;
68050;SDS011;54839;51.364;7.246;2024-01-30T14:24:25;10.57;;;8.17;;
68050;SDS011;54839;51.364;7.246;2024-01-30T14:26:50;13.30;;;8.70;;
68050;SDS011;54839;51.364;7.246;2024-01-30T14:29:16;9.97;;;6.23;;
68050;SDS011;54839;51.364;7.246;2024-01-30T14:31:42;12.83;;;8.67;;
68050;SDS011;54839;51.364;7.246;2024-01-30T14:34:07;10.20;;;6.50;;
68050;SDS011;54839;51.364;7.246;2024-01-30T14:36:35;7.60;;;6.83;;